sensor_id;sensor_type;location;lat;lon;timestamp;P1;durP1;ratioP1;P2;durP2;ratioP2
44456;SDS011;30159;49.316;8.558;2022-11-20T00:00:02;8.47;;;5.63;;
44456;SDS011;30159;49.316;8.558;2022-11-20T00:02:29;8.47;;;7.23;;
44456;SDS011;30159;49.316;8.558;2022-11-20T00:04:55;9.50;;;6.30;;
44456;SDS011;30159;49.316;8.558;2022-11-20T00:07:22;7.60;;;5.93;;
44456;SDS011;30159;49.316;8.558;2022-11-20T00:09:49;5.93;;;5.20;;
44456;SDS011;30159;49.316;8.558;2022-11-20T00:12:15;5.27;;;4.70;;
44456;SDS011;30159;49.316;8.558;2022-11-20T00:14:42;6.97;;;5.53;;
44456;SDS011;30159;49.316;8.558;2022-11-20T00:17:10;7.13;;;5.27;;
44456;SDS011;30159;49.316;8.558;2022-11-20T00:19:36;6.03;;;5.43;;
44456;SDS011;30159;49.316;8.558;2022-11-20T00:22:03;8.10;;;5.70;;
44456;SDS011;30159;49.316;8.558;2022-11-20T00:24:29;6.90;;;5.40;;
44456;SDS011;30159;49.316;8.558;2022-11-20T00:26:56;5.63;;;4.57;;
44456;SDS011;30159;49.316;8.558;2022-11-20T00:29:22;9.77;;;5.97;;
44456;SDS011;30159;49.316;8.558;2022-11-20T00:31:49;8.00;;;5.23;;
44456;SDS011;30159;49.316;8.558;2022-11-20T00:34:17;8.60;;;5.57;;
44456;SDS011;30159;49.316;8.558;2022-11-20T00:36:43;9.27;;;5.53;;
44456;SDS011;30159;49.316;8.558;2022-11-20T00:39:10;11.13;;;6.10;;
44456;SDS011;30159;49.316;8.558;2022-11-20T00:41:36;9.10;;;5.37;;
44456;SDS011;30159;49.316;8.558;2022-11-20T00:44:03;6.13;;;4.67;;
44456;SDS011;30159;49.316;8.558;2022-11-20T00:46:29;10.00;;;6.27;;
44456;SDS011;30159;49.316;8.558;2022-11-20T00:48:56;8.60;;;6.17;;
44456;SDS011;30159;49.316;8.558;2022-11-20T00:51:25;7.63;;;6.13;;
44456;SDS011;30159;49.316;8.558;2022-11-20T00:53:54;8.20;;;4.97;;
44456;SDS011;30159;49.316;8.558;2022-11-20T00:56:21;11.50;;;6.20;;
44456;SDS011;30159;49.316;8.558;2022-11-20T00:58:48;7.53;;;4.87;;
44456;SDS011;30159;49.316;8.558;2022-11-20T01:01:17;9.50;;;5.43;;
44456;SDS011;30159;49.316;8.558;2022-11-20T01:03:45;11.37;;;8.20;;
44456;SDS011;30159;49.316;8.558;2022-11-20T01:06:14;7.33;;;5.90;;
44456;SDS011;30159;49.316;8.558;2022-11-20T01:08:44;14.57;;;6.80;;
44456;SDS011;30159;49.316;8.558;2022-11-20T01:11:12;5.20;;;4.80;;
44456;SDS011;30159;49.316;8.558;2022-11-20T01:13:40;12.03;;;6.00;;
44456;SDS011;30159;49.316;8.558;2022-11-20T01:16:08;5.17;;;4.67;;
44456;SDS011;30159;49.316;8.558;2022-11-20T01:18:37;7.00;;;5.90;;
44456;SDS011;30159;49.316;8.558;2022-11-20T01:21:05;9.23;;;5.47;;
44456;SDS011;30159;49.316;8.558;2022-11-20T01:23:34;9.50;;;5.97;;
44456;SDS011;30159;49.316;8.558;2022-11-20T01:26:03;7.13;;;5.27;;
44456;SDS011;30159;49.316;8.558;2022-11-20T01:28:31;6.77;;;5.63;;
44456;SDS011;30159;49.316;8.558;2022-11-20T01:30:58;8.93;;;5.03;;
44456;SDS011;30159;49.316;8.558;2022-11-20T01:33:25;8.20;;;4.73;;
44456;SDS011;30159;49.316;8.558;2022-11-20T01:35:52;9.53;;;6.20;;
44456;SDS011;30159;49.316;8.558;2022-11-20T01:38:19;6.77;;;5.57;;
44456;SDS011;30159;49.316;8.558;2022-11-20T01:40:53;7.53;;;5.43;;
44456;SDS011;30159;49.316;8.558;2022-11-20T01:43:21;6.17;;;5.50;;
44456;SDS011;30159;49.316;8.558;2022-11-20T01:45:56;7.70;;;4.60;;
44456;SDS011;30159;49.316;8.558;2022-11-20T01:48:26;6.47;;;5.33;;
44456;SDS011;30159;49.316;8.558;2022-11-20T01:50:58;7.80;;;6.10;;
44456;SDS011;30159;49.316;8.558;2022-11-20T01:53:27;5.33;;;4.87;;
44456;SDS011;30159;49.316;8.558;2022-11-20T01:55:58;6.60;;;5.10;;
44456;SDS011;30159;49.316;8.558;2022-11-20T01:58:30;6.23;;;5.23;;
44456;SDS011;30159;49.316;8.558;2022-11-20T02:00:59;11.13;;;7.17;;
44456;SDS011;30159;49.316;8.558;2022-11-20T02:03:26;7.20;;;6.23;;
44456;SDS011;30159;49.316;8.558;2022-11-20T02:05:54;8.33;;;5.47;;
44456;SDS011;30159;49.316;8.558;2022-11-20T02:08:23;9.57;;;5.63;;
44456;SDS011;30159;49.316;8.558;2022-11-20T02:10:50;6.00;;;4.73;;
44456;SDS011;30159;49.316;8.558;2022-11-20T02:13:17;8.27;;;4.67;;
44456;SDS011;30159;49.316;8.558;2022-11-20T02:16:02;4.13;;;3.80;;
44456;SDS011;30159;49.316;8.558;2022-11-20T02:18:30;11.40;;;6.20;;
44456;SDS011;30159;49.316;8.558;2022-11-20T02:20:58;8.10;;;4.70;;
44456;SDS011;30159;49.316;8.558;2022-11-20T02:23:28;10.33;;;6.43;;
44456;SDS011;30159;49.316;8.558;2022-11-20T02:26:00;11.60;;;5.87;;
44456;SDS011;30159;49.316;8.558;2022-11-20T02:28:30;8.67;;;5.53;;
44456;SDS011;30159;49.316;8.558;2022-11-20T02:30:57;10.03;;;6.40;;
44456;SDS011;30159;49.316;8.558;2022-11-20T02:33:23;7.23;;;5.10;;
44456;SDS011;30159;49.316;8.558;2022-11-20T02:35:50;7.30;;;5.30;;
44456;SDS011;30159;49.316;8.558;2022-11-20T02:38:16;10.43;;;5.60;;
44456;SDS011;30159;49.316;8.558;2022-11-20T02:40:43;10.70;;;6.47;;
44456;SDS011;30159;49.316;8.558;2022-11-20T02:43:11;11.10;;;6.47;;
44456;SDS011;30159;49.316;8.558;2022-11-20T02:45:40;8.73;;;4.73;;
44456;SDS011;30159;49.316;8.558;2022-11-20T02:48:07;8.43;;;5.73;;
44456;SDS011;30159;49.316;8.558;2022-11-20T02:50:36;7.87;;;5.50;;
44456;SDS011;30159;49.316;8.558;2022-11-20T02:53:03;5.90;;;5.10;;
44456;SDS011;30159;49.316;8.558;2022-11-20T02:55:30;8.77;;;6.03;;
44456;SDS011;30159;49.316;8.558;2022-11-20T02:57:57;7.47;;;5.87;;
44456;SDS011;30159;49.316;8.558;2022-11-20T03:00:24;7.00;;;4.50;;
44456;SDS011;30159;49.316;8.558;2022-11-20T03:02:51;7.53;;;5.27;;
44456;SDS011;30159;49.316;8.558;2022-11-20T03:05:18;11.27;;;6.60;;
44456;SDS011;30159;49.316;8.558;2022-11-20T03:07:44;17.50;;;6.20;;
44456;SDS011;30159;49.316;8.558;2022-11-20T03:10:11;10.70;;;6.57;;
44456;SDS011;30159;49.316;8.558;2022-11-20T03:12:38;10.40;;;5.97;;
44456;SDS011;30159;49.316;8.558;2022-11-20T03:15:04;9.77;;;5.70;;
44456;SDS011;30159;49.316;8.558;2022-11-20T03:17:33;9.13;;;5.20;;
44456;SDS011;30159;49.316;8.558;2022-11-20T03:19:59;9.10;;;6.53;;
44456;SDS011;30159;49.316;8.558;2022-11-20T03:22:28;11.90;;;7.90;;
44456;SDS011;30159;49.316;8.558;2022-11-20T03:24:54;7.80;;;6.00;;
44456;SDS011;30159;49.316;8.558;2022-11-20T03:27:24;11.33;;;6.57;;
44456;SDS011;30159;49.316;8.558;2022-11-20T03:29:50;7.73;;;5.27;;
44456;SDS011;30159;49.316;8.558;2022-11-20T03:32:17;15.07;;;6.37;;
44456;SDS011;30159;49.316;8.558;2022-11-20T03:34:44;7.47;;;5.70;;
44456;SDS011;30159;49.316;8.558;2022-11-20T03:37:11;10.67;;;6.13;;
44456;SDS011;30159;49.316;8.558;2022-11-20T03:39:38;10.10;;;6.50;;
44456;SDS011;30159;49.316;8.558;2022-11-20T03:42:04;12.60;;;6.27;;
44456;SDS011;30159;49.316;8.558;2022-11-20T03:44:51;10.87;;;5.90;;
44456;SDS011;30159;49.316;8.558;2022-11-20T03:47:18;8.63;;;5.40;;
44456;SDS011;30159;49.316;8.558;2022-11-20T03:49:46;7.97;;;5.43;;
44456;SDS011;30159;49.316;8.558;2022-11-20T03:52:12;7.90;;;5.57;;
44456;SDS011;30159;49.316;8.558;2022-11-20T03:54:39;11.10;;;5.60;;
44456;SDS011;30159;49.316;8.558;2022-11-20T03:57:05;4.90;;;4.30;;
44456;SDS011;30159;49.316;8.558;2022-11-20T03:59:32;7.77;;;4.47;;
44456;SDS011;30159;49.316;8.558;2022-11-20T04:01:58;9.20;;;5.50;;
44456;SDS011;30159;49.316;8.558;2022-11-20T04:04:25;11.17;;;5.57;;
44456;SDS011;30159;49.316;8.558;2022-11-20T04:06:53;6.90;;;4.63;;
44456;SDS011;30159;49.316;8.558;2022-11-20T04:09:19;10.00;;;5.73;;
44456;SDS011;30159;49.316;8.558;2022-11-20T04:11:46;8.50;;;5.50;;
44456;SDS011;30159;49.316;8.558;2022-11-20T04:14:13;6.70;;;5.03;;
44456;SDS011;30159;49.316;8.558;2022-11-20T04:16:41;8.53;;;5.37;;
44456;SDS011;30159;49.316;8.558;2022-11-20T04:19:09;8.53;;;6.13;;
44456;SDS011;30159;49.316;8.558;2022-11-20T04:21:37;13.67;;;6.17;;
44456;SDS011;30159;49.316;8.558;2022-11-20T04:24:06;7.77;;;4.77;;
44456;SDS011;30159;49.316;8.558;2022-11-20T04:26:33;9.60;;;6.10;;
44456;SDS011;30159;49.316;8.558;2022-11-20T04:29:00;9.90;;;5.50;;
44456;SDS011;30159;49.316;8.558;2022-11-20T04:31:28;7.77;;;5.60;;
44456;SDS011;30159;49.316;8.558;2022-11-20T04:33:58;12.40;;;6.50;;
44456;SDS011;30159;49.316;8.558;2022-11-20T04:36:26;9.50;;;5.60;;
44456;SDS011;30159;49.316;8.558;2022-11-20T04:38:54;7.87;;;5.20;;
44456;SDS011;30159;49.316;8.558;2022-11-20T04:41:23;8.60;;;5.77;;
44456;SDS011;30159;49.316;8.558;2022-11-20T04:43:51;10.00;;;5.67;;
44456;SDS011;30159;49.316;8.558;2022-11-20T04:46:24;8.13;;;5.17;;
44456;SDS011;30159;49.316;8.558;2022-11-20T04:48:51;7.10;;;5.47;;
44456;SDS011;30159;49.316;8.558;2022-11-20T04:51:18;8.00;;;5.27;;
44456;SDS011;30159;49.316;8.558;2022-11-20T04:53:44;7.53;;;4.93;;
44456;SDS011;30159;49.316;8.558;2022-11-20T04:56:11;10.67;;;5.10;;
44456;SDS011;30159;49.316;8.558;2022-11-20T04:58:39;6.07;;;5.47;;
44456;SDS011;30159;49.316;8.558;2022-11-20T05:01:07;11.07;;;6.53;;
44456;SDS011;30159;49.316;8.558;2022-11-20T05:03:36;9.17;;;6.30;;
44456;SDS011;30159;49.316;8.558;2022-11-20T05:06:03;9.70;;;5.90;;
44456;SDS011;30159;49.316;8.558;2022-11-20T05:08:31;9.33;;;6.60;;
44456;SDS011;30159;49.316;8.558;2022-11-20T05:11:01;16.00;;;6.93;;
44456;SDS011;30159;49.316;8.558;2022-11-20T05:13:29;11.43;;;6.70;;
44456;SDS011;30159;49.316;8.558;2022-11-20T05:16:01;10.03;;;7.07;;
44456;SDS011;30159;49.316;8.558;2022-11-20T05:18:28;11.40;;;6.60;;
44456;SDS011;30159;49.316;8.558;2022-11-20T05:20:55;12.10;;;7.40;;
44456;SDS011;30159;49.316;8.558;2022-11-20T05:23:22;10.10;;;5.40;;
44456;SDS011;30159;49.316;8.558;2022-11-20T05:25:51;11.13;;;7.63;;
44456;SDS011;30159;49.316;8.558;2022-11-20T05:28:18;12.67;;;7.30;;
44456;SDS011;30159;49.316;8.558;2022-11-20T05:30:44;8.07;;;6.13;;
44456;SDS011;30159;49.316;8.558;2022-11-20T05:33:12;12.17;;;6.67;;
44456;SDS011;30159;49.316;8.558;2022-11-20T05:35:39;12.30;;;6.97;;
44456;SDS011;30159;49.316;8.558;2022-11-20T05:38:06;13.07;;;6.43;;
44456;SDS011;30159;49.316;8.558;2022-11-20T05:40:33;11.00;;;6.50;;
44456;SDS011;30159;49.316;8.558;2022-11-20T05:42:59;8.80;;;6.13;;
44456;SDS011;30159;49.316;8.558;2022-11-20T05:45:26;8.03;;;6.87;;
44456;SDS011;30159;49.316;8.558;2022-11-20T05:47:52;8.50;;;6.37;;
44456;SDS011;30159;49.316;8.558;2022-11-20T05:50:20;8.80;;;6.00;;
44456;SDS011;30159;49.316;8.558;2022-11-20T05:52:46;12.60;;;6.93;;
44456;SDS011;30159;49.316;8.558;2022-11-20T05:55:13;10.30;;;6.57;;
44456;SDS011;30159;49.316;8.558;2022-11-20T05:57:39;9.10;;;6.57;;
44456;SDS011;30159;49.316;8.558;2022-11-20T06:00:07;8.07;;;6.33;;
44456;SDS011;30159;49.316;8.558;2022-11-20T06:02:34;8.57;;;6.03;;
44456;SDS011;30159;49.316;8.558;2022-11-20T06:05:01;12.27;;;7.17;;
44456;SDS011;30159;49.316;8.558;2022-11-20T06:07:28;7.67;;;6.30;;
44456;SDS011;30159;49.316;8.558;2022-11-20T06:09:55;16.83;;;7.80;;
44456;SDS011;30159;49.316;8.558;2022-11-20T06:12:21;13.00;;;8.33;;
44456;SDS011;30159;49.316;8.558;2022-11-20T06:14:48;12.20;;;8.70;;
44456;SDS011;30159;49.316;8.558;2022-11-20T06:17:14;14.63;;;8.20;;
44456;SDS011;30159;49.316;8.558;2022-11-20T06:19:41;14.20;;;8.70;;
44456;SDS011;30159;49.316;8.558;2022-11-20T06:22:07;13.87;;;8.67;;
44456;SDS011;30159;49.316;8.558;2022-11-20T06:24:35;18.73;;;9.23;;
44456;SDS011;30159;49.316;8.558;2022-11-20T06:27:02;13.17;;;8.57;;
44456;SDS011;30159;49.316;8.558;2022-11-20T06:29:28;17.43;;;8.90;;
44456;SDS011;30159;49.316;8.558;2022-11-20T06:31:55;11.90;;;8.30;;
44456;SDS011;30159;49.316;8.558;2022-11-20T06:34:21;15.17;;;7.33;;
44456;SDS011;30159;49.316;8.558;2022-11-20T06:36:48;11.47;;;7.37;;
44456;SDS011;30159;49.316;8.558;2022-11-20T06:39:14;15.60;;;9.13;;
44456;SDS011;30159;49.316;8.558;2022-11-20T06:41:42;14.90;;;9.00;;
44456;SDS011;30159;49.316;8.558;2022-11-20T06:44:09;13.27;;;8.20;;
44456;SDS011;30159;49.316;8.558;2022-11-20T06:46:36;10.93;;;6.80;;
44456;SDS011;30159;49.316;8.558;2022-11-20T06:49:02;16.30;;;8.43;;
44456;SDS011;30159;49.316;8.558;2022-11-20T06:51:30;9.80;;;6.73;;
44456;SDS011;30159;49.316;8.558;2022-11-20T06:53:57;9.97;;;7.80;;
44456;SDS011;30159;49.316;8.558;2022-11-20T06:56:23;10.67;;;7.70;;
44456;SDS011;30159;49.316;8.558;2022-11-20T06:58:51;9.03;;;6.07;;
44456;SDS011;30159;49.316;8.558;2022-11-20T07:01:17;13.50;;;6.43;;
44456;SDS011;30159;49.316;8.558;2022-11-20T07:03:44;11.63;;;7.40;;
44456;SDS011;30159;49.316;8.558;2022-11-20T07:06:10;8.73;;;6.00;;
44456;SDS011;30159;49.316;8.558;2022-11-20T07:08:37;9.33;;;5.80;;
44456;SDS011;30159;49.316;8.558;2022-11-20T07:11:04;8.00;;;6.27;;
44456;SDS011;30159;49.316;8.558;2022-11-20T07:13:32;7.83;;;6.93;;
44456;SDS011;30159;49.316;8.558;2022-11-20T07:16:01;10.73;;;6.10;;
44456;SDS011;30159;49.316;8.558;2022-11-20T07:18:29;10.80;;;6.57;;
44456;SDS011;30159;49.316;8.558;2022-11-20T07:20:56;8.27;;;6.50;;
44456;SDS011;30159;49.316;8.558;2022-11-20T07:23:22;7.07;;;5.80;;
44456;SDS011;30159;49.316;8.558;2022-11-20T07:25:49;13.33;;;6.83;;
44456;SDS011;30159;49.316;8.558;2022-11-20T07:28:15;8.03;;;5.80;;
44456;SDS011;30159;49.316;8.558;2022-11-20T07:30:42;8.07;;;5.53;;
44456;SDS011;30159;49.316;8.558;2022-11-20T07:33:09;10.03;;;6.50;;
44456;SDS011;30159;49.316;8.558;2022-11-20T07:35:36;14.60;;;6.73;;
44456;SDS011;30159;49.316;8.558;2022-11-20T07:38:03;6.70;;;5.03;;
44456;SDS011;30159;49.316;8.558;2022-11-20T07:40:29;10.97;;;6.20;;
44456;SDS011;30159;49.316;8.558;2022-11-20T07:42:56;9.57;;;4.80;;
44456;SDS011;30159;49.316;8.558;2022-11-20T07:45:23;9.40;;;5.00;;
44456;SDS011;30159;49.316;8.558;2022-11-20T07:47:50;6.00;;;4.60;;
44456;SDS011;30159;49.316;8.558;2022-11-20T07:50:18;5.97;;;5.27;;
44456;SDS011;30159;49.316;8.558;2022-11-20T07:52:45;5.73;;;4.90;;
44456;SDS011;30159;49.316;8.558;2022-11-20T07:55:12;6.43;;;5.00;;
44456;SDS011;30159;49.316;8.558;2022-11-20T07:57:39;5.57;;;5.03;;
44456;SDS011;30159;49.316;8.558;2022-11-20T08:00:06;5.63;;;4.37;;
44456;SDS011;30159;49.316;8.558;2022-11-20T08:02:36;6.53;;;4.53;;
44456;SDS011;30159;49.316;8.558;2022-11-20T08:05:03;5.57;;;4.97;;
44456;SDS011;30159;49.316;8.558;2022-11-20T08:07:35;6.90;;;4.70;;
44456;SDS011;30159;49.316;8.558;2022-11-20T08:10:03;5.17;;;4.67;;
44456;SDS011;30159;49.316;8.558;2022-11-20T08:12:30;8.57;;;5.30;;
44456;SDS011;30159;49.316;8.558;2022-11-20T08:15:28;6.00;;;5.20;;
44456;SDS011;30159;49.316;8.558;2022-11-20T08:17:59;4.90;;;4.37;;
44456;SDS011;30159;49.316;8.558;2022-11-20T08:20:26;7.67;;;5.03;;
44456;SDS011;30159;49.316;8.558;2022-11-20T08:22:58;4.63;;;4.20;;
44456;SDS011;30159;49.316;8.558;2022-11-20T08:25:25;10.33;;;5.50;;
44456;SDS011;30159;49.316;8.558;2022-11-20T08:27:52;8.90;;;5.10;;
44456;SDS011;30159;49.316;8.558;2022-11-20T08:30:19;7.53;;;5.20;;
44456;SDS011;30159;49.316;8.558;2022-11-20T08:32:45;6.47;;;5.30;;
44456;SDS011;30159;49.316;8.558;2022-11-20T08:35:12;6.50;;;4.80;;
44456;SDS011;30159;49.316;8.558;2022-11-20T08:37:38;9.63;;;5.00;;
44456;SDS011;30159;49.316;8.558;2022-11-20T08:40:09;8.27;;;5.03;;
44456;SDS011;30159;49.316;8.558;2022-11-20T08:42:36;8.27;;;4.87;;
44456;SDS011;30159;49.316;8.558;2022-11-20T08:45:03;4.23;;;3.83;;
44456;SDS011;30159;49.316;8.558;2022-11-20T08:47:30;6.57;;;4.37;;
44456;SDS011;30159;49.316;8.558;2022-11-20T08:49:57;4.73;;;4.23;;
44456;SDS011;30159;49.316;8.558;2022-11-20T08:52:23;6.70;;;4.70;;
44456;SDS011;30159;49.316;8.558;2022-11-20T08:54:50;5.20;;;4.70;;
44456;SDS011;30159;49.316;8.558;2022-11-20T08:57:18;5.77;;;5.00;;
44456;SDS011;30159;49.316;8.558;2022-11-20T08:59:44;5.20;;;4.70;;
44456;SDS011;30159;49.316;8.558;2022-11-20T09:02:11;5.17;;;4.60;;
44456;SDS011;30159;49.316;8.558;2022-11-20T09:04:38;5.30;;;4.37;;
44456;SDS011;30159;49.316;8.558;2022-11-20T09:07:04;4.90;;;4.10;;
44456;SDS011;30159;49.316;8.558;2022-11-20T09:09:31;4.47;;;3.40;;
44456;SDS011;30159;49.316;8.558;2022-11-20T09:11:57;5.23;;;4.10;;
44456;SDS011;30159;49.316;8.558;2022-11-20T09:14:25;4.60;;;3.93;;
44456;SDS011;30159;49.316;8.558;2022-11-20T09:16:54;4.50;;;4.07;;
44456;SDS011;30159;49.316;8.558;2022-11-20T09:19:20;3.77;;;3.40;;
44456;SDS011;30159;49.316;8.558;2022-11-20T09:21:47;4.27;;;3.97;;
44456;SDS011;30159;49.316;8.558;2022-11-20T09:24:13;6.07;;;5.20;;
44456;SDS011;30159;49.316;8.558;2022-11-20T09:26:40;4.53;;;4.13;;
44456;SDS011;30159;49.316;8.558;2022-11-20T09:29:07;5.50;;;4.40;;
44456;SDS011;30159;49.316;8.558;2022-11-20T09:31:34;5.77;;;4.07;;
44456;SDS011;30159;49.316;8.558;2022-11-20T09:34:01;5.63;;;5.13;;
44456;SDS011;30159;49.316;8.558;2022-11-20T09:36:28;5.13;;;4.63;;
44456;SDS011;30159;49.316;8.558;2022-11-20T09:38:54;4.60;;;4.30;;
44456;SDS011;30159;49.316;8.558;2022-11-20T09:41:30;6.13;;;5.57;;
44456;SDS011;30159;49.316;8.558;2022-11-20T09:44:19;7.93;;;4.87;;
44456;SDS011;30159;49.316;8.558;2022-11-20T09:47:00;6.60;;;4.63;;
44456;SDS011;30159;49.316;8.558;2022-11-20T09:49:36;4.97;;;4.47;;
44456;SDS011;30159;49.316;8.558;2022-11-20T09:52:17;4.10;;;3.80;;
44456;SDS011;30159;49.316;8.558;2022-11-20T09:54:53;7.90;;;5.37;;
44456;SDS011;30159;49.316;8.558;2022-11-20T09:57:21;5.10;;;4.60;;
44456;SDS011;30159;49.316;8.558;2022-11-20T10:00:00;4.37;;;4.07;;
44456;SDS011;30159;49.316;8.558;2022-11-20T10:02:34;4.47;;;4.07;;
44456;SDS011;30159;49.316;8.558;2022-11-20T10:05:09;5.00;;;4.30;;
44456;SDS011;30159;49.316;8.558;2022-11-20T10:07:40;5.60;;;5.10;;
44456;SDS011;30159;49.316;8.558;2022-11-20T10:10:14;5.63;;;5.13;;
44456;SDS011;30159;49.316;8.558;2022-11-20T10:12:46;7.00;;;4.70;;
44456;SDS011;30159;49.316;8.558;2022-11-20T10:15:26;5.80;;;4.80;;
44456;SDS011;30159;49.316;8.558;2022-11-20T10:20:54;5.20;;;4.70;;
44456;SDS011;30159;49.316;8.558;2022-11-20T10:23:35;5.77;;;5.27;;
44456;SDS011;30159;49.316;8.558;2022-11-20T10:26:16;5.47;;;4.40;;
44456;SDS011;30159;49.316;8.558;2022-11-20T10:28:50;4.77;;;4.23;;
44456;SDS011;30159;49.316;8.558;2022-11-20T10:31:29;4.37;;;3.83;;
44456;SDS011;30159;49.316;8.558;2022-11-20T10:34:00;3.23;;;2.93;;
44456;SDS011;30159;49.316;8.558;2022-11-20T10:36:33;2.60;;;2.33;;
44456;SDS011;30159;49.316;8.558;2022-11-20T10:39:06;3.23;;;2.73;;
44456;SDS011;30159;49.316;8.558;2022-11-20T10:41:41;2.23;;;2.00;;
44456;SDS011;30159;49.316;8.558;2022-11-20T10:44:09;2.43;;;2.23;;
44456;SDS011;30159;49.316;8.558;2022-11-20T10:47:01;2.23;;;2.00;;
44456;SDS011;30159;49.316;8.558;2022-11-20T10:49:29;3.07;;;1.97;;
44456;SDS011;30159;49.316;8.558;2022-11-20T10:51:59;2.30;;;2.10;;
44456;SDS011;30159;49.316;8.558;2022-11-20T10:54:32;2.93;;;2.10;;
44456;SDS011;30159;49.316;8.558;2022-11-20T10:57:07;2.57;;;2.37;;
44456;SDS011;30159;49.316;8.558;2022-11-20T10:59:44;2.53;;;2.33;;
44456;SDS011;30159;49.316;8.558;2022-11-20T11:02:21;2.83;;;2.50;;
44456;SDS011;30159;49.316;8.558;2022-11-20T11:04:50;2.83;;;2.63;;
44456;SDS011;30159;49.316;8.558;2022-11-20T11:07:20;2.57;;;2.37;;
44456;SDS011;30159;49.316;8.558;2022-11-20T11:09:50;2.40;;;2.20;;
44456;SDS011;30159;49.316;8.558;2022-11-20T11:12:18;3.50;;;1.93;;
44456;SDS011;30159;49.316;8.558;2022-11-20T11:14:47;2.13;;;2.00;;
44456;SDS011;30159;49.316;8.558;2022-11-20T11:17:25;2.10;;;1.80;;
44456;SDS011;30159;49.316;8.558;2022-11-20T11:20:03;1.70;;;1.60;;
44456;SDS011;30159;49.316;8.558;2022-11-20T11:22:33;1.97;;;1.87;;
44456;SDS011;30159;49.316;8.558;2022-11-20T11:25:08;2.20;;;2.03;;
44456;SDS011;30159;49.316;8.558;2022-11-20T11:27:45;2.07;;;1.90;;
44456;SDS011;30159;49.316;8.558;2022-11-20T11:30:13;2.43;;;2.00;;
44456;SDS011;30159;49.316;8.558;2022-11-20T11:32:41;3.30;;;2.17;;
44456;SDS011;30159;49.316;8.558;2022-11-20T11:35:20;3.67;;;2.10;;
44456;SDS011;30159;49.316;8.558;2022-11-20T11:37:48;4.00;;;2.07;;
44456;SDS011;30159;49.316;8.558;2022-11-20T11:40:16;3.20;;;2.23;;
44456;SDS011;30159;49.316;8.558;2022-11-20T11:42:48;2.80;;;2.00;;
44456;SDS011;30159;49.316;8.558;2022-11-20T11:45:19;2.13;;;2.03;;
44456;SDS011;30159;49.316;8.558;2022-11-20T11:47:46;4.47;;;4.10;;
44456;SDS011;30159;49.316;8.558;2022-11-20T11:50:15;4.03;;;2.67;;
44456;SDS011;30159;49.316;8.558;2022-11-20T11:52:46;3.47;;;2.47;;
44456;SDS011;30159;49.316;8.558;2022-11-20T11:55:23;2.33;;;1.73;;
44456;SDS011;30159;49.316;8.558;2022-11-20T11:57:55;8.63;;;2.10;;
44456;SDS011;30159;49.316;8.558;2022-11-20T12:00:34;2.90;;;2.70;;
44456;SDS011;30159;49.316;8.558;2022-11-20T12:03:05;3.50;;;2.00;;
44456;SDS011;30159;49.316;8.558;2022-11-20T12:05:41;3.20;;;2.10;;
44456;SDS011;30159;49.316;8.558;2022-11-20T12:08:13;2.03;;;1.50;;
44456;SDS011;30159;49.316;8.558;2022-11-20T12:10:45;2.90;;;1.30;;
44456;SDS011;30159;49.316;8.558;2022-11-20T12:13:22;1.70;;;1.60;;
44456;SDS011;30159;49.316;8.558;2022-11-20T12:15:58;1.73;;;1.60;;
44456;SDS011;30159;49.316;8.558;2022-11-20T12:18:25;3.83;;;1.67;;
44456;SDS011;30159;49.316;8.558;2022-11-20T12:20:59;2.00;;;1.90;;
44456;SDS011;30159;49.316;8.558;2022-11-20T12:23:38;4.03;;;2.90;;
44456;SDS011;30159;49.316;8.558;2022-11-20T12:26:14;2.40;;;2.20;;
44456;SDS011;30159;49.316;8.558;2022-11-20T12:28:52;2.83;;;2.23;;
44456;SDS011;30159;49.316;8.558;2022-11-20T12:31:33;4.87;;;2.00;;
44456;SDS011;30159;49.316;8.558;2022-11-20T12:34:23;3.63;;;1.73;;
44456;SDS011;30159;49.316;8.558;2022-11-20T12:36:56;1.57;;;1.47;;
44456;SDS011;30159;49.316;8.558;2022-11-20T12:39:34;1.50;;;1.40;;
44456;SDS011;30159;49.316;8.558;2022-11-20T12:42:05;2.03;;;1.73;;
44456;SDS011;30159;49.316;8.558;2022-11-20T12:48:16;1.50;;;1.40;;
44456;SDS011;30159;49.316;8.558;2022-11-20T12:51:03;3.30;;;1.70;;
44456;SDS011;30159;49.316;8.558;2022-11-20T12:53:50;2.37;;;1.67;;
44456;SDS011;30159;49.316;8.558;2022-11-20T12:56:31;1.60;;;1.20;;
44456;SDS011;30159;49.316;8.558;2022-11-20T12:59:10;1.50;;;1.37;;
44456;SDS011;30159;49.316;8.558;2022-11-20T13:01:50;2.03;;;1.40;;
44456;SDS011;30159;49.316;8.558;2022-11-20T13:04:26;1.60;;;1.50;;
44456;SDS011;30159;49.316;8.558;2022-11-20T13:07:05;2.00;;;1.90;;
44456;SDS011;30159;49.316;8.558;2022-11-20T13:09:36;2.07;;;1.40;;
44456;SDS011;30159;49.316;8.558;2022-11-20T13:12:10;1.47;;;1.37;;
44456;SDS011;30159;49.316;8.558;2022-11-20T13:14:40;1.50;;;1.40;;
44456;SDS011;30159;49.316;8.558;2022-11-20T13:17:13;7.27;;;1.40;;
44456;SDS011;30159;49.316;8.558;2022-11-20T13:19:47;4.30;;;1.23;;
44456;SDS011;30159;49.316;8.558;2022-11-20T13:22:24;1.23;;;0.90;;
44456;SDS011;30159;49.316;8.558;2022-11-20T13:24:51;2.10;;;1.33;;
44456;SDS011;30159;49.316;8.558;2022-11-20T13:27:20;1.10;;;1.00;;
44456;SDS011;30159;49.316;8.558;2022-11-20T13:29:58;2.57;;;1.00;;
44456;SDS011;30159;49.316;8.558;2022-11-20T13:32:27;1.30;;;0.97;;
44456;SDS011;30159;49.316;8.558;2022-11-20T13:34:58;1.23;;;1.13;;
44456;SDS011;30159;49.316;8.558;2022-11-20T13:37:27;2.70;;;1.07;;
44456;SDS011;30159;49.316;8.558;2022-11-20T13:40:05;1.27;;;1.17;;
44456;SDS011;30159;49.316;8.558;2022-11-20T13:42:54;2.70;;;1.00;;
44456;SDS011;30159;49.316;8.558;2022-11-20T13:45:24;2.93;;;1.30;;
44456;SDS011;30159;49.316;8.558;2022-11-20T13:47:52;1.40;;;1.30;;
44456;SDS011;30159;49.316;8.558;2022-11-20T13:50:21;1.67;;;1.20;;
44456;SDS011;30159;49.316;8.558;2022-11-20T13:53:06;1.23;;;1.10;;
44456;SDS011;30159;49.316;8.558;2022-11-20T13:55:45;3.50;;;1.30;;
44456;SDS011;30159;49.316;8.558;2022-11-20T13:58:26;1.83;;;1.63;;
44456;SDS011;30159;49.316;8.558;2022-11-20T14:01:07;1.53;;;1.43;;
44456;SDS011;30159;49.316;8.558;2022-11-20T14:03:36;1.63;;;1.40;;
44456;SDS011;30159;49.316;8.558;2022-11-20T14:06:05;2.30;;;1.20;;
44456;SDS011;30159;49.316;8.558;2022-11-20T14:08:39;3.10;;;1.30;;
44456;SDS011;30159;49.316;8.558;2022-11-20T14:11:14;3.63;;;1.20;;
44456;SDS011;30159;49.316;8.558;2022-11-20T14:13:57;1.13;;;1.03;;
44456;SDS011;30159;49.316;8.558;2022-11-20T14:16:25;1.60;;;1.50;;
44456;SDS011;30159;49.316;8.558;2022-11-20T14:18:53;2.63;;;1.50;;
44456;SDS011;30159;49.316;8.558;2022-11-20T14:21:25;2.37;;;1.50;;
44456;SDS011;30159;49.316;8.558;2022-11-20T14:23:53;3.33;;;2.10;;
44456;SDS011;30159;49.316;8.558;2022-11-20T14:26:28;2.20;;;2.00;;
44456;SDS011;30159;49.316;8.558;2022-11-20T14:28:56;3.83;;;1.87;;
44456;SDS011;30159;49.316;8.558;2022-11-20T14:31:24;1.40;;;1.20;;
44456;SDS011;30159;49.316;8.558;2022-11-20T14:33:53;1.20;;;1.10;;
44456;SDS011;30159;49.316;8.558;2022-11-20T14:36:21;1.53;;;1.00;;
44456;SDS011;30159;49.316;8.558;2022-11-20T14:38:51;1.20;;;1.10;;
44456;SDS011;30159;49.316;8.558;2022-11-20T14:41:19;1.37;;;1.10;;
44456;SDS011;30159;49.316;8.558;2022-11-20T14:43:48;1.27;;;1.17;;
44456;SDS011;30159;49.316;8.558;2022-11-20T14:46:20;2.47;;;1.30;;
44456;SDS011;30159;49.316;8.558;2022-11-20T14:48:49;1.77;;;1.67;;
44456;SDS011;30159;49.316;8.558;2022-11-20T14:51:23;1.67;;;1.30;;
44456;SDS011;30159;49.316;8.558;2022-11-20T14:53:54;2.00;;;1.30;;
44456;SDS011;30159;49.316;8.558;2022-11-20T14:56:21;2.07;;;1.10;;
44456;SDS011;30159;49.316;8.558;2022-11-20T14:58:55;2.03;;;1.23;;
44456;SDS011;30159;49.316;8.558;2022-11-20T15:01:26;0.90;;;0.80;;
44456;SDS011;30159;49.316;8.558;2022-11-20T15:03:58;1.20;;;1.10;;
44456;SDS011;30159;49.316;8.558;2022-11-20T15:06:26;3.67;;;1.13;;